Photometre #1041[NE_1.6] Brno_Airport AOT

File : 20220928_1041.hum

28/09/2022,05:43:02,TEMP=6.4,BA=5.60,STAT.A=5.0,ExtBa=14.00
28/09/2022,05:47:01,TEMP=6.8,BA=5.60,STAT.A=5.0,ExtBa=14.00
28/09/2022,05:51:42,TEMP=7.2,BA=5.56,STAT.A=5.0,ExtBa=14.10
28/09/2022,05:57:16,TEMP=7.6,BA=5.56,STAT.A=5.0,ExtBa=13.80
28/09/2022,06:04:00,TEMP=8.0,BA=5.60,STAT.A=5.0,ExtBa=13.80
28/09/2022,06:12:21,TEMP=8.4,BA=5.60,STAT.A=5.0,ExtBa=13.90
28/09/2022,06:22:57,TEMP=8.7,BA=5.60,STAT.B=5.0,ExtBa=14.00
28/09/2022,06:33:08,TEMP=10.2,BA=5.36,STAT.A=5.0,ExtBa=12.80
28/09/2022,06:35:03,TEMP=10.4,BA=5.36,STAT.A=5.0,ExtBa=13.20
28/09/2022,06:40:16,TEMP=10.2,BA=5.48,STAT.A=5.0,ExtBa=13.00
28/09/2022,06:47:43,TEMP=10.6,BA=5.48,STAT.A=5.0,ExtBa=13.20
28/09/2022,06:56:18,TEMP=11.1,BA=5.52,STAT.C=5.0,ExtBa=13.50
28/09/2022,07:06:23,TEMP=11.7,BA=5.60,STAT.A=6.0,ExtBa=13.60
28/09/2022,07:18:26,TEMP=12.4,BA=5.60,STAT.A=6.0,ExtBa=13.70
28/09/2022,07:33:11,TEMP=13.1,BA=5.60,STAT.A=6.0,ExtBa=13.90
28/09/2022,07:44:37,TEMP=13.5,BA=5.60,STAT.F,ExtBa=13.80
28/09/2022,08:01:20,TEMP=13.8,BA=5.36,STAT.D=5.0,ExtBa=12.80
28/09/2022,08:14:35,TEMP=12.8,BA=5.48,STAT.D=6.0,ExtBa=13.40
28/09/2022,08:29:35,TEMP=12.9,BA=5.48,STAT.D=6.0,ExtBa=13.80
28/09/2022,08:44:37,TEMP=13.0,BA=5.52,STAT.F,ExtBa=13.70
28/09/2022,08:59:36,TEMP=13.7,BA=5.36,STAT.D=6.0,ExtBa=13.70
28/09/2022,09:14:36,TEMP=15.7,BA=5.52,STAT.D=6.0,ExtBa=13.70
28/09/2022,09:29:36,TEMP=17.5,BA=5.52,STAT.D=6.0,ExtBa=13.80
28/09/2022,09:44:37,TEMP=18.2,BA=5.52,STAT.F,ExtBa=13.90
28/09/2022,09:59:36,TEMP=17.7,BA=5.36,STAT.D=6.0,ExtBa=13.50
28/09/2022,10:14:36,TEMP=17.1,BA=5.40,STAT.D=6.0,ExtBa=13.60
28/09/2022,10:29:36,TEMP=16.6,BA=5.44,STAT.D=6.0,ExtBa=13.60
28/09/2022,10:44:37,TEMP=16.4,BA=5.44,STAT.F,ExtBa=13.80
28/09/2022,10:59:36,TEMP=17.5,BA=5.32,STAT.D=6.0,ExtBa=13.20
28/09/2022,11:14:36,TEMP=16.7,BA=5.40,STAT.D=6.0,ExtBa=13.50
28/09/2022,11:29:36,TEMP=16.4,BA=5.40,STAT.D=6.0,ExtBa=13.70
28/09/2022,11:44:37,TEMP=15.9,BA=5.44,STAT.F,ExtBa=13.70
28/09/2022,11:59:36,TEMP=15.4,BA=5.44,STAT.D=6.0,ExtBa=13.90
28/09/2022,12:14:36,TEMP=15.7,BA=5.44,STAT.D=6.0,ExtBa=13.80
28/09/2022,12:29:36,TEMP=16.3,BA=5.44,STAT.D=6.0,ExtBa=13.70
28/09/2022,12:44:37,TEMP=17.3,BA=5.48,STAT.F,ExtBa=13.90
28/09/2022,12:59:35,TEMP=17.9,BA=5.32,STAT.D=6.0,ExtBa=13.20
28/09/2022,13:14:35,TEMP=17.3,BA=5.40,STAT.D=6.0,ExtBa=13.40
28/09/2022,13:29:35,TEMP=16.6,BA=5.40,STAT.D=6.0,ExtBa=13.60
28/09/2022,13:44:37,TEMP=16.3,BA=5.44,STAT.F,ExtBa=13.70
28/09/2022,13:56:03,TEMP=16.3,BA=5.44,STAT.A=6.0,ExtBa=13.70
28/09/2022,14:10:46,TEMP=16.4,BA=5.44,STAT.A=6.0,ExtBa=13.80
28/09/2022,14:22:49,TEMP=16.2,BA=5.44,STAT.A=6.0,ExtBa=13.70
28/09/2022,14:32:55,TEMP=16.0,BA=5.44,STAT.C=6.0,ExtBa=13.80
28/09/2022,14:41:30,TEMP=15.9,BA=5.44,STAT.A=6.0,ExtBa=13.70
28/09/2022,14:48:56,TEMP=15.8,BA=5.44,STAT.A=6.0,ExtBa=13.80
28/09/2022,14:55:25,TEMP=15.8,BA=5.32,STAT.A=6.0,ExtBa=13.70
28/09/2022,15:01:09,TEMP=15.7,BA=5.44,STAT.A=6.0,ExtBa=14.10
28/09/2022,15:06:15,TEMP=15.7,BA=5.44,STAT.B=6.0,ExtBa=14.20
28/09/2022,15:16:51,TEMP=15.5,BA=5.44,STAT.A=6.0,ExtBa=13.70
28/09/2022,15:25:12,TEMP=15.4,BA=5.44,STAT.A=6.0,ExtBa=13.70
28/09/2022,15:31:56,TEMP=15.4,BA=5.48,STAT.A=6.0,ExtBa=13.70
28/09/2022,15:37:30,TEMP=15.3,BA=5.48,STAT.A=6.0,ExtBa=13.80
28/09/2022,15:42:11,TEMP=15.3,BA=5.44,STAT.A=6.0,ExtBa=13.70
28/09/2022,15:46:10,TEMP=15.2,BA=5.44,STAT.A=6.0,ExtBa=13.70